Time;durP1;ratioP1;P1;durP2;ratioP2;P2;SDS_P1;SDS_P2;PMS_P1;PMS_P2;Temp;Humidity;BMP_temperature;BMP_pressure;BME280_temperature;BME280_humidity;BME280_pressure;Samples;Min_cycle;Max_cycle;Signal;HPM_P1;HPM_P2
2022/02/12 00:00:47;;;;;;;14.90;11.23;;;2.60;99.90;;;;;;5081995;28;20241;-49
2022/02/12 00:03:15;;;;;;;14.50;10.98;;;2.60;99.90;;;;;;5085076;28;20245;-46
2022/02/12 00:05:42;;;;;;;24.95;12.30;;;2.60;99.90;;;;;;5082256;28;20218;-48
2022/02/12 00:08:09;;;;;;;15.05;9.50;;;2.50;99.90;;;;;;5083256;28;20199;-46
2022/02/12 00:10:36;;;;;;;12.85;9.52;;;2.60;99.90;;;;;;5081901;28;20200;-47
2022/02/12 00:13:11;;;;;;;15.38;9.60;;;2.50;99.90;;;;;;5086110;28;20256;-46
2022/02/12 00:15:40;;;;;;;11.20;8.55;;;2.50;99.90;;;;;;5084745;28;20285;-52
2022/02/12 00:18:07;;;;;;;13.73;9.05;;;2.50;99.90;;;;;;5084242;28;20237;-48
2022/02/12 00:20:35;;;;;;;13.63;10.23;;;2.50;99.90;;;;;;5081601;28;20537;-47
2022/02/12 00:23:02;;;;;;;13.23;9.57;;;2.50;99.90;;;;;;5082040;28;20323;-46
2022/02/12 00:25:30;;;;;;;13.48;9.45;;;2.60;99.90;;;;;;5081571;28;20231;-46
2022/02/12 00:27:59;;;;;;;16.95;10.68;;;2.60;99.90;;;;;;5082140;28;20195;-46
2022/02/12 00:30:27;;;;;;;11.13;9.45;;;2.60;99.90;;;;;;5081899;28;20222;-53
2022/02/12 00:32:56;;;;;;;13.07;9.50;;;2.70;99.90;;;;;;5084107;28;20198;-51
2022/02/12 00:35:23;;;;;;;13.05;10.50;;;2.70;99.90;;;;;;5081662;28;20350;-46
2022/02/12 00:37:51;;;;;;;8.38;7.30;;;2.80;99.90;;;;;;5081722;28;20200;-48
2022/02/12 00:40:20;;;;;;;19.60;10.50;;;2.80;99.90;;;;;;5083191;28;20235;-45
2022/02/12 00:42:47;;;;;;;11.13;9.90;;;2.90;99.90;;;;;;5086889;28;20494;-46
2022/02/12 00:45:14;;;;;;;11.68;9.15;;;2.90;99.90;;;;;;5081981;28;20220;-46
2022/02/12 00:47:41;;;;;;;12.18;7.47;;;2.90;99.90;;;;;;5081211;28;20199;-45
2022/02/12 00:50:09;;;;;;;12.63;9.65;;;2.80;99.90;;;;;;5086165;28;20457;-48
2022/02/12 00:52:36;;;;;;;11.48;9.07;;;2.70;99.90;;;;;;5080575;28;20272;-50
2022/02/12 00:55:03;;;;;;;10.18;8.18;;;2.70;99.90;;;;;;5081531;28;20279;-45
2022/02/12 00:57:31;;;;;;;9.02;6.05;;;2.70;99.90;;;;;;5085044;28;20198;-52
2022/02/12 00:59:58;;;;;;;8.82;6.53;;;2.60;99.90;;;;;;5081644;28;20533;-50
2022/02/12 01:02:26;;;;;;;13.50;6.75;;;2.50;99.90;;;;;;5081033;28;20274;-45
2022/02/12 01:04:53;;;;;;;8.40;7.18;;;2.30;99.90;;;;;;5081433;28;20273;-46
2022/02/12 01:07:20;;;;;;;7.47;5.78;;;2.20;99.90;;;;;;5081422;28;20199;-52
2022/02/12 01:09:48;;;;;;;18.45;9.27;;;2.10;99.90;;;;;;5081474;28;20480;-51
2022/02/12 01:12:15;;;;;;;8.55;7.68;;;2.00;99.90;;;;;;5081370;28;20210;-54
2022/02/12 01:14:42;;;;;;;12.15;7.00;;;1.80;99.90;;;;;;5083455;28;20244;-53
2022/02/12 01:17:10;;;;;;;7.63;5.55;;;1.70;99.90;;;;;;5082447;28;20201;-47
2022/02/12 01:19:38;;;;;;;11.85;7.35;;;1.60;99.90;;;;;;5088707;28;20245;-52
2022/02/12 01:22:05;;;;;;;7.60;6.47;;;1.50;99.90;;;;;;5086595;28;21580;-45
2022/02/12 01:24:34;;;;;;;9.73;7.43;;;1.50;99.90;;;;;;5088417;28;20264;-58
2022/02/12 01:27:02;;;;;;;8.30;6.65;;;1.50;99.90;;;;;;5085498;28;20260;-48
2022/02/12 01:29:29;;;;;;;8.40;7.05;;;1.50;99.90;;;;;;5085416;28;20240;-51
2022/02/12 01:32:03;;;;;;;12.68;7.30;;;1.50;99.90;;;;;;5081678;28;20206;-52
2022/02/12 01:34:33;;;;;;;10.55;7.25;;;1.60;99.90;;;;;;5081990;28;20218;-52
2022/02/12 01:37:05;;;;;;;7.22;6.15;;;1.70;99.90;;;;;;5081321;28;20199;-49
2022/02/12 01:39:33;;;;;;;6.95;6.25;;;1.70;99.90;;;;;;5081491;28;20302;-50
2022/02/12 01:42:01;;;;;;;7.00;6.40;;;1.80;99.90;;;;;;5087317;28;20195;-47
2022/02/12 01:44:31;;;;;;;11.02;6.38;;;1.80;99.90;;;;;;5084023;28;20525;-47
2022/02/12 01:46:59;;;;;;;6.15;5.53;;;1.80;99.90;;;;;;5081536;28;20248;-50
2022/02/12 01:49:28;;;;;;;11.63;6.18;;;1.80;99.90;;;;;;5080416;28;20207;-51
2022/02/12 01:51:56;;;;;;;10.18;6.55;;;1.60;99.90;;;;;;5085612;28;20203;-47
2022/02/12 01:54:25;;;;;;;7.85;5.32;;;1.40;99.90;;;;;;5062620;28;20458;-48
2022/02/12 01:56:52;;;;;;;5.38;4.88;;;1.30;99.90;;;;;;5086648;28;20259;-49
2022/02/12 01:59:24;;;;;;;14.55;6.57;;;1.20;99.90;;;;;;5080375;28;20417;-47
2022/02/12 02:01:52;;;;;;;8.05;5.35;;;1.10;99.90;;;;;;5081495;28;20195;-55
2022/02/12 02:04:20;;;;;;;11.57;7.07;;;1.10;99.90;;;;;;5081365;28;20241;-47
2022/02/12 02:06:49;;;;;;;8.02;4.72;;;1.00;99.90;;;;;;5080833;28;20195;-45
2022/02/12 02:09:18;;;;;;;10.43;6.60;;;1.00;99.90;;;;;;5080759;28;20203;-48
2022/02/12 02:11:46;;;;;;;11.65;6.22;;;0.90;99.90;;;;;;5082137;28;20207;-48
2022/02/12 02:14:14;;;;;;;14.23;8.32;;;0.80;99.90;;;;;;5079856;28;20218;-49
2022/02/12 02:16:43;;;;;;;9.07;7.03;;;0.80;99.90;;;;;;5079188;28;20203;-52
2022/02/12 02:19:11;;;;;;;6.57;5.53;;;0.70;99.90;;;;;;5080339;28;20203;-53
2022/02/12 02:21:40;;;;;;;7.93;5.93;;;0.80;99.90;;;;;;5079700;28;20505;-55
2022/02/12 02:24:07;;;;;;;8.45;5.75;;;0.80;99.90;;;;;;5082186;28;20234;-54
2022/02/12 02:26:36;;;;;;;13.05;8.05;;;0.80;99.90;;;;;;5081526;28;20227;-54
2022/02/12 02:29:03;;;;;;;9.23;7.05;;;0.70;99.90;;;;;;5080412;28;20210;-52
2022/02/12 02:31:30;;;;;;;10.80;8.63;;;0.70;99.90;;;;;;5079943;28;20252;-46
2022/02/12 02:33:57;;;;;;;9.55;7.63;;;0.70;99.90;;;;;;5080105;28;20222;-48
2022/02/12 02:36:24;;;;;;;11.75;8.05;;;0.70;99.90;;;;;;5082566;28;20195;-49
2022/02/12 02:38:51;;;;;;;12.57;7.75;;;0.70;99.90;;;;;;5081889;28;20207;-52
2022/02/12 02:41:18;;;;;;;15.30;9.18;;;0.60;99.90;;;;;;5084964;28;20268;-48
2022/02/12 02:43:45;;;;;;;13.30;7.13;;;0.60;99.90;;;;;;5084146;28;20198;-46
2022/02/12 02:46:15;;;;;;;8.95;7.03;;;0.60;99.90;;;;;;5080042;28;20455;-48
2022/02/12 02:48:42;;;;;;;11.25;6.55;;;0.60;99.90;;;;;;5082444;28;20233;-49
2022/02/12 02:56:43;;;;;;;13.57;8.98;;;0.70;99.90;;;;;;5082075;28;20277;-55
2022/02/12 02:59:11;;;;;;;21.13;7.85;;;0.70;99.90;;;;;;5080349;28;20237;-47
2022/02/12 03:01:38;;;;;;;11.13;8.10;;;0.50;99.90;;;;;;5079268;28;20195;-50
2022/02/12 03:04:05;;;;;;;11.05;7.05;;;0.40;99.90;;;;;;5081368;28;20218;-51
2022/02/12 03:06:32;;;;;;;10.23;7.88;;;0.40;99.90;;;;;;5080254;28;20266;-54
2022/02/12 03:09:00;;;;;;;16.00;6.65;;;0.30;99.90;;;;;;5081605;28;20198;-51
2022/02/12 03:11:27;;;;;;;7.80;6.00;;;0.20;99.90;;;;;;5081330;28;20206;-49
2022/02/12 03:13:55;;;;;;;9.45;7.45;;;0.20;99.90;;;;;;5081069;28;20218;-48
2022/02/12 03:16:23;;;;;;;13.73;6.80;;;0.30;99.90;;;;;;5079922;28;20206;-50
2022/02/12 03:18:50;;;;;;;8.50;6.20;;;0.20;99.90;;;;;;5080253;28;20501;-46
2022/02/12 03:21:18;;;;;;;6.82;5.40;;;0.10;99.90;;;;;;5063117;28;20619;-47
2022/02/12 03:23:45;;;;;;;8.63;5.95;;;0.00;99.90;;;;;;5079867;28;20199;-54
2022/02/12 03:26:13;;;;;;;9.25;5.90;;;0.00;99.90;;;;;;5080022;28;20195;-49
2022/02/12 03:28:41;;;;;;;9.10;5.55;;;0.00;99.90;;;;;;5081193;28;20195;-49
2022/02/12 03:31:08;;;;;;;13.60;6.70;;;0.00;99.90;;;;;;5083214;28;20497;-46
2022/02/12 03:33:36;;;;;;;8.70;5.90;;;0.10;99.90;;;;;;5086773;28;20245;-50
2022/02/12 03:36:04;;;;;;;8.70;5.43;;;0.30;99.90;;;;;;5085198;28;20220;-50
2022/02/12 03:38:35;;;;;;;10.40;5.90;;;0.50;99.90;;;;;;5084651;28;20198;-48
2022/02/12 03:41:06;;;;;;;7.13;4.78;;;0.50;99.90;;;;;;5088842;28;20563;-46
2022/02/12 03:43:35;;;;;;;7.10;5.72;;;0.40;99.90;;;;;;5087742;28;20209;-49
2022/02/12 03:46:05;;;;;;;7.63;6.45;;;0.50;99.90;;;;;;5085276;28;20274;-47
2022/02/12 03:48:32;;;;;;;7.40;5.47;;;0.50;99.90;;;;;;5086226;28;20207;-47
2022/02/12 03:50:59;;;;;;;18.58;8.27;;;0.60;99.90;;;;;;5089707;28;20249;-49
2022/02/12 03:53:26;;;;;;;11.68;8.70;;;0.50;99.90;;;;;;5083247;28;20211;-47
2022/02/12 03:55:53;;;;;;;21.00;8.82;;;0.30;99.90;;;;;;5083761;28;20244;-46
2022/02/12 03:58:21;;;;;;;16.63;9.68;;;0.30;99.90;;;;;;5083381;28;20198;-53
2022/02/12 04:00:49;;;;;;;18.33;9.77;;;0.40;99.90;;;;;;5084043;28;20226;-50
2022/02/12 04:03:18;;;;;;;16.33;7.63;;;0.40;99.90;;;;;;5083021;28;20194;-48
2022/02/12 04:05:45;;;;;;;10.73;6.78;;;0.30;99.90;;;;;;5082759;28;20417;-50
2022/02/12 04:08:18;;;;;;;13.43;6.00;;;0.20;99.90;;;;;;5083485;28;20459;-47
2022/02/12 04:10:46;;;;;;;11.40;6.15;;;0.30;99.90;;;;;;5083031;28;20214;-52
2022/02/12 04:13:14;;;;;;;13.88;6.63;;;0.30;99.90;;;;;;5083254;28;20201;-52
2022/02/12 04:15:41;;;;;;;7.28;5.13;;;0.20;99.90;;;;;;5085320;28;20230;-52
2022/02/12 04:18:10;;;;;;;10.07;5.55;;;0.20;99.90;;;;;;5083090;28;20453;-52
2022/02/12 04:20:38;;;;;;;7.38;4.57;;;0.20;99.90;;;;;;5082434;28;20215;-54
2022/02/12 04:23:06;;;;;;;7.57;5.15;;;0.20;99.90;;;;;;5085721;28;20210;-54
2022/02/12 04:25:33;;;;;;;12.88;6.43;;;0.30;99.90;;;;;;5086344;28;20225;-53
2022/02/12 04:28:05;;;;;;;10.50;5.90;;;0.20;99.90;;;;;;5083252;28;20224;-50
2022/02/12 04:30:33;;;;;;;7.93;6.00;;;0.30;99.90;;;;;;5084492;28;20252;-51
2022/02/12 04:33:00;;;;;;;11.98;5.18;;;0.20;99.90;;;;;;5082920;28;20214;-50
2022/02/12 04:35:27;;;;;;;10.60;6.30;;;0.00;99.90;;;;;;5082510;28;20217;-52
2022/02/12 04:37:54;;;;;;;12.50;5.70;;;0.10;99.90;;;;;;5082896;28;20448;-53
2022/02/12 04:40:21;;;;;;;13.57;6.25;;;0.00;99.90;;;;;;5083753;28;20222;-49
2022/02/12 04:42:49;;;;;;;12.82;6.25;;;0.00;99.90;;;;;;5091744;28;20436;-48
2022/02/12 04:45:16;;;;;;;8.18;6.18;;;-0.10;99.90;;;;;;5083977;28;20218;-47
2022/02/12 04:47:43;;;;;;;9.70;6.40;;;-0.40;99.90;;;;;;5082683;28;20194;-51
2022/02/12 04:50:11;;;;;;;9.90;7.32;;;-0.40;99.90;;;;;;5082609;28;20397;-46
2022/02/12 04:52:38;;;;;;;9.90;6.05;;;-0.40;99.90;;;;;;5088424;28;20202;-56
2022/02/12 04:55:06;;;;;;;10.88;7.35;;;-0.40;99.90;;;;;;5085702;28;20226;-50
2022/02/12 04:57:34;;;;;;;9.82;6.75;;;-0.50;99.90;;;;;;5084578;28;20198;-50
2022/02/12 05:00:04;;;;;;;12.18;7.53;;;-0.40;99.90;;;;;;5083159;28;20245;-51
2022/02/12 05:02:31;;;;;;;13.05;8.50;;;-0.30;99.90;;;;;;5082484;28;20199;-48
2022/02/12 05:04:58;;;;;;;16.60;7.05;;;-0.40;99.90;;;;;;5082934;28;20221;-51
2022/02/12 05:07:25;;;;;;;12.70;6.65;;;-0.30;99.90;;;;;;5082271;28;20195;-49
2022/02/12 05:09:52;;;;;;;10.18;7.10;;;-0.30;99.90;;;;;;5082762;28;20195;-50
2022/02/12 05:12:19;;;;;;;10.85;6.75;;;-0.30;99.90;;;;;;5081634;28;20497;-48
2022/02/12 05:14:47;;;;;;;13.05;6.13;;;-0.20;99.90;;;;;;5084416;28;20222;-52
2022/02/12 05:17:14;;;;;;;14.43;7.47;;;-0.30;99.90;;;;;;5085156;28;20493;-53
2022/02/12 05:19:42;;;;;;;11.63;6.78;;;-0.30;99.90;;;;;;5082319;28;20265;-51
2022/02/12 05:22:09;;;;;;;12.82;7.57;;;-0.30;99.90;;;;;;5081998;28;20203;-47
2022/02/12 05:24:36;;;;;;;16.88;7.00;;;-0.30;99.90;;;;;;5083730;28;20226;-46
2022/02/12 05:27:03;;;;;;;16.90;8.35;;;-0.40;99.90;;;;;;5083150;28;20198;-51
2022/02/12 05:29:31;;;;;;;16.77;8.95;;;-0.50;99.90;;;;;;5081204;28;20221;-50
2022/02/12 05:31:58;;;;;;;18.83;8.63;;;-0.50;99.90;;;;;;5082617;28;20199;-51
2022/02/12 05:34:25;;;;;;;16.00;10.68;;;-0.50;99.90;;;;;;5081810;28;20455;-53
2022/02/12 05:36:52;;;;;;;19.13;8.43;;;-0.40;99.90;;;;;;5085228;28;20225;-49
2022/02/12 05:39:19;;;;;;;17.42;8.82;;;-0.20;99.90;;;;;;5083835;28;20261;-51
2022/02/12 05:41:46;;;;;;;10.27;8.57;;;-0.30;99.90;;;;;;5086440;28;20235;-49
2022/02/12 05:44:13;;;;;;;16.23;9.48;;;-0.30;99.90;;;;;;5086336;28;20552;-47
2022/02/12 05:46:40;;;;;;;17.40;8.90;;;-0.50;99.90;;;;;;5083168;28;20203;-51
2022/02/12 05:49:08;;;;;;;12.13;7.60;;;-0.60;99.90;;;;;;5081741;28;20206;-49
2022/02/12 05:51:35;;;;;;;17.17;9.90;;;-0.60;99.90;;;;;;5080774;28;20210;-51
2022/02/12 05:54:04;;;;;;;20.17;11.30;;;-0.70;99.90;;;;;;5081926;28;20227;-49
2022/02/12 05:56:33;;;;;;;15.73;9.02;;;-0.60;99.90;;;;;;5081491;28;20252;-48
2022/02/12 05:59:02;;;;;;;15.25;12.10;;;-0.50;99.90;;;;;;5081712;28;20215;-50
2022/02/12 06:01:29;;;;;;;21.98;12.93;;;-0.50;99.90;;;;;;5081499;28;20468;-56
2022/02/12 06:03:56;;;;;;;24.85;14.75;;;-0.50;99.90;;;;;;5081822;28;20221;-51
2022/02/12 06:06:23;;;;;;;20.27;12.32;;;-0.50;99.90;;;;;;5081391;28;20239;-51
2022/02/12 06:08:53;;;;;;;16.67;11.32;;;-0.30;99.90;;;;;;5081628;28;20273;-53
2022/02/12 06:11:20;;;;;;;17.35;11.85;;;-0.20;99.90;;;;;;5080968;28;20244;-51
2022/02/12 06:13:51;;;;;;;22.98;12.85;;;-0.10;99.90;;;;;;5081618;28;20199;-48
2022/02/12 06:16:21;;;;;;;16.23;11.68;;;-0.10;99.90;;;;;;5081179;28;20226;-49
2022/02/12 06:18:48;;;;;;;15.32;10.18;;;-0.10;99.90;;;;;;5081724;28;20501;-48
2022/02/12 06:21:16;;;;;;;15.15;10.90;;;-0.20;99.90;;;;;;5080569;28;20219;-54
2022/02/12 06:23:43;;;;;;;16.13;9.77;;;-0.30;99.90;;;;;;5080555;28;20195;-48
2022/02/12 06:26:11;;;;;;;16.10;9.85;;;-0.20;99.90;;;;;;5081476;28;20229;-47
2022/02/12 06:28:38;;;;;;;13.27;9.88;;;-0.30;99.90;;;;;;5082829;28;20203;-52
2022/02/12 06:31:05;;;;;;;22.60;11.40;;;-0.30;99.90;;;;;;5081339;28;20201;-51
2022/02/12 06:33:33;;;;;;;19.55;10.30;;;-0.30;99.90;;;;;;5082838;28;20256;-51
2022/02/12 06:36:00;;;;;;;11.75;9.15;;;-0.10;99.90;;;;;;5105750;28;20485;-47
2022/02/12 06:38:27;;;;;;;14.32;11.25;;;-0.30;99.90;;;;;;5102193;28;20381;-47
2022/02/12 06:40:55;;;;;;;9.88;8.80;;;-0.30;99.90;;;;;;5107470;28;20230;-47
2022/02/12 06:43:23;;;;;;;12.40;10.52;;;-0.10;99.90;;;;;;5099902;28;20233;-50
2022/02/12 06:45:50;;;;;;;9.27;8.32;;;0.00;99.90;;;;;;5099892;28;20283;-49
2022/02/12 06:48:18;;;;;;;13.57;8.40;;;0.00;99.90;;;;;;5099866;28;20206;-48
2022/02/12 06:50:47;;;;;;;12.60;10.32;;;0.00;99.90;;;;;;5099512;28;20257;-52
2022/02/12 06:53:15;;;;;;;9.85;8.30;;;0.00;99.90;;;;;;5099824;28;20204;-52
2022/02/12 06:55:43;;;;;;;12.98;7.95;;;-0.10;99.90;;;;;;5099743;28;20466;-53
2022/02/12 06:58:10;;;;;;;14.23;7.82;;;-0.20;99.90;;;;;;5104820;28;20224;-48
2022/02/12 07:00:37;;;;;;;12.73;9.10;;;0.00;99.90;;;;;;5105463;28;20218;-52
2022/02/12 07:03:06;;;;;;;12.70;8.35;;;0.00;99.90;;;;;;5101809;28;20496;-50
2022/02/12 07:05:34;;;;;;;14.93;8.68;;;0.00;99.90;;;;;;5105969;28;20218;-53
2022/02/12 07:08:03;;;;;;;11.57;8.10;;;0.30;99.90;;;;;;5105875;28;20456;-48
2022/02/12 07:10:34;;;;;;;19.73;9.35;;;0.40;99.90;;;;;;5106545;28;20299;-54
2022/02/12 07:13:02;;;;;;;17.60;11.05;;;0.40;99.90;;;;;;5105865;28;20205;-56
2022/02/12 07:15:30;;;;;;;19.08;9.05;;;0.40;99.90;;;;;;5106387;28;20385;-50
2022/02/12 07:17:57;;;;;;;10.20;8.00;;;0.60;99.90;;;;;;5105877;28;20202;-52
2022/02/12 07:20:24;;;;;;;12.20;8.48;;;0.90;99.90;;;;;;5105770;28;20300;-54
2022/02/12 07:22:52;;;;;;;17.05;11.07;;;1.00;99.90;;;;;;5106224;28;20228;-52
2022/02/12 07:25:19;;;;;;;10.82;8.63;;;1.30;99.90;;;;;;5126403;28;20595;-48
2022/02/12 07:27:47;;;;;;;16.33;10.48;;;1.60;99.90;;;;;;5122374;28;20283;-53
2022/02/12 07:30:16;;;;;;;19.33;9.98;;;2.10;99.90;;;;;;5104783;28;20201;-54
2022/02/12 07:32:44;;;;;;;11.98;8.98;;;2.60;99.90;;;;;;5091274;28;20194;-49
2022/02/12 07:35:13;;;;;;;7.35;6.32;;;3.30;99.90;;;;;;5091238;28;20262;-52
2022/02/12 07:37:43;;;;;;;10.45;6.38;;;4.10;99.90;;;;;;5088259;28;20498;-49
2022/02/12 07:40:13;;;;;;;6.03;5.40;;;4.20;99.90;;;;;;5088988;28;20585;-50
2022/02/12 07:42:41;;;;;;;12.35;4.70;;;4.10;99.90;;;;;;5087936;28;20223;-53
2022/02/12 07:45:11;;;;;;;8.10;4.78;;;4.20;99.90;;;;;;5090888;28;20249;-47
2022/02/12 07:47:39;;;;;;;7.75;4.78;;;4.50;99.90;;;;;;5089521;28;20201;-54
2022/02/12 07:50:08;;;;;;;6.55;4.15;;;5.00;99.90;;;;;;5090097;28;20252;-46
2022/02/12 07:52:36;;;;;;;7.50;4.32;;;5.60;99.90;;;;;;5088407;28;20572;-53
2022/02/12 07:55:05;;;;;;;5.03;4.20;;;6.80;99.90;;;;;;5090866;28;20284;-51
2022/02/12 07:57:32;;;;;;;10.13;4.55;;;7.80;99.90;;;;;;5089748;28;20202;-48
2022/02/12 07:59:59;;;;;;;7.63;4.97;;;8.80;99.90;;;;;;5090048;28;20194;-53
2022/02/12 08:02:27;;;;;;;13.48;5.35;;;9.20;99.90;;;;;;5088166;28;20298;-46
2022/02/12 08:04:54;;;;;;;6.20;3.80;;;9.50;99.90;;;;;;5104074;28;20224;-47
2022/02/12 08:07:28;;;;;;;7.00;3.75;;;9.70;99.90;;;;;;5106029;28;20257;-48
2022/02/12 08:09:57;;;;;;;7.90;4.40;;;10.40;99.90;;;;;;5105746;28;20196;-50
2022/02/12 08:12:26;;;;;;;8.48;3.42;;;10.90;99.90;;;;;;5101749;28;20212;-45
2022/02/12 08:14:56;;;;;;;7.82;3.83;;;11.20;99.90;;;;;;5093388;28;20232;-47
2022/02/12 08:17:24;;;;;;;6.38;3.67;;;12.10;99.90;;;;;;5103120;28;20429;-46
2022/02/12 08:19:52;;;;;;;11.43;4.28;;;12.20;99.90;;;;;;5102179;28;20447;-50
2022/02/12 08:22:20;;;;;;;4.35;2.78;;;12.40;99.90;;;;;;5102099;28;20222;-48
2022/02/12 08:24:53;;;;;;;6.65;3.55;;;12.10;99.90;;;;;;5101860;28;20241;-48
2022/02/12 08:27:22;;;;;;;5.72;4.30;;;12.30;99.90;;;;;;5106265;28;20197;-49
2022/02/12 08:29:49;;;;;;;7.25;4.28;;;11.30;99.90;;;;;;5096555;28;20238;-49
2022/02/12 08:32:17;;;;;;;5.43;3.67;;;10.60;99.90;;;;;;5100817;28;20205;-51
2022/02/12 08:34:44;;;;;;;6.07;3.97;;;10.70;99.90;;;;;;5101433;28;20214;-51
2022/02/12 08:37:12;;;;;;;5.60;4.45;;;11.40;99.90;;;;;;5098399;28;20316;-51
2022/02/12 08:39:46;;;;;;;5.82;4.22;;;11.90;99.90;;;;;;5090942;28;20384;-52
2022/02/12 08:42:13;;;;;;;4.80;4.15;;;11.80;99.90;;;;;;5088922;28;20225;-49
2022/02/12 08:44:40;;;;;;;6.78;4.25;;;12.20;99.90;;;;;;5085494;28;20528;-51
2022/02/12 08:47:11;;;;;;;6.03;4.80;;;12.30;99.90;;;;;;5084498;28;20214;-46
2022/02/12 08:49:39;;;;;;;5.95;4.70;;;12.00;99.90;;;;;;5085813;28;20394;-49
2022/02/12 08:52:07;;;;;;;7.45;4.82;;;12.50;99.90;;;;;;5121336;28;20242;-49
2022/02/12 08:54:34;;;;;;;8.65;4.32;;;12.30;99.90;;;;;;5105550;28;20544;-48
2022/02/12 08:57:03;;;;;;;6.78;4.00;;;12.10;99.90;;;;;;5101521;28;20623;-50
2022/02/12 08:59:32;;;;;;;5.35;4.50;;;12.70;99.90;;;;;;5101712;28;20205;-49
2022/02/12 09:02:09;;;;;;;8.05;4.13;;;13.20;99.90;;;;;;5100545;28;20431;-53
2022/02/12 09:04:37;;;;;;;4.45;3.65;;;13.80;99.90;;;;;;5101763;28;20214;-50
2022/02/12 09:07:05;;;;;;;6.03;4.00;;;14.50;99.90;;;;;;5090115;28;20207;-54
2022/02/12 09:09:34;;;;;;;4.80;3.90;;;14.20;99.90;;;;;;5081799;28;20228;-50
2022/02/12 09:12:01;;;;;;;8.38;4.05;;;13.20;99.90;;;;;;5087689;28;20305;-50
2022/02/12 09:14:29;;;;;;;7.82;3.58;;;12.70;99.90;;;;;;5087689;28;20221;-47
2022/02/12 09:16:56;;;;;;;5.00;3.10;;;12.40;99.90;;;;;;5100772;28;20539;-50
2022/02/12 09:19:23;;;;;;;4.90;2.70;;;12.30;99.90;;;;;;5091336;28;20221;-47
2022/02/12 09:21:51;;;;;;;5.82;3.25;;;12.40;99.90;;;;;;5097853;28;20378;-48
2022/02/12 09:24:18;;;;;;;3.35;3.05;;;12.30;99.90;;;;;;5099520;28;20459;-52
2022/02/12 09:26:46;;;;;;;2.55;1.90;;;12.10;99.90;;;;;;5092011;28;20218;-48
2022/02/12 09:29:14;;;;;;;4.30;3.58;;;11.20;99.90;;;;;;5084447;28;20396;-47
2022/02/12 09:31:41;;;;;;;5.00;3.65;;;9.80;99.90;;;;;;5099853;28;20213;-51
2022/02/12 09:34:08;;;;;;;3.72;3.05;;;8.30;99.90;;;;;;5083871;28;20230;-50
2022/02/12 09:36:40;;;;;;;9.13;3.00;;;7.20;99.90;;;;;;5084436;28;20222;-54
2022/02/12 09:39:08;;;;;;;5.40;3.88;;;6.80;99.90;;;;;;5086086;28;20211;-50
2022/02/12 09:41:36;;;;;;;6.20;3.22;;;6.50;99.90;;;;;;5094811;28;20218;-50
2022/02/12 09:44:03;;;;;;;5.40;2.97;;;6.40;99.90;;;;;;5099444;28;20226;-50
2022/02/12 09:47:19;;;;;;;6.70;4.15;;;6.20;99.90;;;;;;5105041;28;20193;-49
2022/02/12 09:49:48;;;;;;;10.23;2.95;;;5.80;99.90;;;;;;5096842;28;20206;-50
2022/02/12 09:52:20;;;;;;;7.68;3.10;;;5.80;99.90;;;;;;5094188;28;20278;-52
2022/02/12 09:54:49;;;;;;;7.28;3.65;;;5.80;99.90;;;;;;5102792;28;20571;-50
2022/02/12 09:57:16;;;;;;;5.38;3.17;;;5.80;99.90;;;;;;5099641;28;20524;-50
2022/02/12 09:59:44;;;;;;;4.45;2.35;;;5.70;99.90;;;;;;5105859;28;20577;-48
2022/02/12 10:02:18;;;;;;;3.97;2.33;;;5.70;99.90;;;;;;5106042;28;20398;-45
2022/02/12 10:04:45;;;;;;;5.75;2.50;;;5.80;99.90;;;;;;5098197;28;20214;-50
2022/02/12 10:07:23;;;;;;;4.57;2.38;;;6.00;99.90;;;;;;5099262;28;20198;-50
2022/02/12 10:10:10;;;;;;;2.60;2.05;;;5.70;99.90;;;;;;5096143;28;20202;-47
2022/02/12 10:12:38;;;;;;;6.40;3.55;;;5.50;99.90;;;;;;5099942;28;20205;-51
2022/02/12 10:15:24;;;;;;;17.90;3.95;;;5.30;99.90;;;;;;5098923;28;20337;-50
2022/02/12 10:17:58;;;;;;;5.43;3.15;;;4.90;99.90;;;;;;5110575;28;20205;-45
2022/02/12 10:20:32;;;;;;;6.97;2.35;;;4.70;99.90;;;;;;5106883;28;20232;-52
2022/02/12 10:23:09;;;;;;;2.28;1.90;;;4.70;99.90;;;;;;5098071;28;20224;-47
2022/02/12 10:25:39;;;;;;;4.75;3.22;;;4.80;99.90;;;;;;5100232;28;20262;-51
2022/02/12 10:28:08;;;;;;;4.55;1.98;;;5.10;99.90;;;;;;5098949;28;20238;-48
2022/02/12 10:30:35;;;;;;;3.92;2.03;;;4.90;99.90;;;;;;5098542;28;20209;-50
2022/02/12 10:33:05;;;;;;;6.43;2.95;;;4.90;99.90;;;;;;5098637;28;20439;-52
2022/02/12 10:35:34;;;;;;;4.80;2.88;;;4.90;99.90;;;;;;5099685;28;20228;-48
2022/02/12 10:38:07;;;;;;;4.03;2.80;;;5.10;99.90;;;;;;5097629;28;20245;-49
2022/02/12 10:40:35;;;;;;;2.78;1.65;;;5.10;99.90;;;;;;5107692;28;20198;-46
2022/02/12 10:43:03;;;;;;;5.50;2.00;;;5.00;99.90;;;;;;5097722;28;20237;-50
2022/02/12 10:45:32;;;;;;;3.22;2.75;;;5.00;99.90;;;;;;5108002;28;20217;-52
2022/02/12 10:48:00;;;;;;;4.88;1.75;;;4.90;99.90;;;;;;5119836;28;20316;-47
2022/02/12 10:50:30;;;;;;;5.50;2.03;;;4.90;99.90;;;;;;5117036;28;20200;-46
2022/02/12 10:53:02;;;;;;;3.92;2.40;;;4.70;99.90;;;;;;5098074;28;20262;-48
2022/02/12 10:55:35;;;;;;;5.80;2.33;;;4.70;99.90;;;;;;5097293;28;20415;-50
2022/02/12 10:58:08;;;;;;;4.80;3.08;;;4.80;99.90;;;;;;5097324;28;20200;-50
2022/02/12 11:00:38;;;;;;;4.45;2.00;;;4.70;99.90;;;;;;5097655;28;20197;-50
2022/02/12 11:03:11;;;;;;;7.00;2.45;;;4.60;99.90;;;;;;5099030;28;20259;-47
2022/02/12 11:05:41;;;;;;;12.57;2.10;;;4.60;99.90;;;;;;5086585;28;20220;-52
2022/02/12 11:08:09;;;;;;;10.13;5.53;;;4.60;99.90;;;;;;5083321;28;20201;-47
2022/02/12 11:10:38;;;;;;;26.48;11.20;;;4.50;99.90;;;;;;5088722;28;20200;-51
2022/02/12 11:13:07;;;;;;;9.90;4.53;;;4.60;99.90;;;;;;5099805;28;20189;-46
2022/02/12 11:15:35;;;;;;;5.30;2.42;;;4.70;99.90;;;;;;5099781;28;20232;-48
2022/02/12 11:18:18;;;;;;;4.70;2.10;;;4.60;99.90;;;;;;5099675;28;20201;-46
2022/02/12 11:20:47;;;;;;;6.32;2.25;;;4.60;99.90;;;;;;5099305;28;20261;-47
2022/02/12 11:23:21;;;;;;;2.33;2.13;;;4.50;99.90;;;;;;5098996;28;20233;-50
2022/02/12 11:25:54;;;;;;;3.17;2.65;;;4.40;99.90;;;;;;5099383;28;20277;-50
2022/02/12 11:28:32;;;;;;;5.68;2.42;;;4.50;99.90;;;;;;5099763;28;20202;-55
2022/02/12 11:31:18;;;;;;;8.95;2.60;;;4.50;99.90;;;;;;5099007;28;20201;-52
2022/02/12 11:34:09;;;;;;;3.38;2.22;;;4.30;99.90;;;;;;5099233;28;20800;-52
2022/02/12 11:36:38;;;;;;;9.18;3.28;;;4.20;99.90;;;;;;5099229;28;20201;-52
2022/02/12 11:39:09;;;;;;;3.80;3.50;;;4.10;99.90;;;;;;5098609;28;20236;-50
2022/02/12 11:41:38;;;;;;;6.47;2.08;;;4.10;99.90;;;;;;5108620;28;20229;-51
2022/02/12 11:44:06;;;;;;;4.40;2.50;;;4.00;99.90;;;;;;5119848;28;20228;-45
2022/02/12 11:46:51;;;;;;;4.22;2.97;;;4.00;99.90;;;;;;5120089;28;20270;-48
2022/02/12 11:49:38;;;;;;;4.80;1.83;;;4.00;99.90;;;;;;5120921;28;20196;-47
2022/02/12 11:52:08;;;;;;;3.88;1.85;;;4.00;99.90;;;;;;5111550;28;20410;-48
2022/02/12 11:54:57;;;;;;;3.97;1.92;;;4.20;99.90;;;;;;5103111;28;20254;-53
2022/02/12 11:57:27;;;;;;;3.13;1.95;;;4.20;99.90;;;;;;5102797;28;20196;-50
2022/02/12 12:00:03;;;;;;;2.03;1.90;;;4.20;99.90;;;;;;5102381;28;20246;-47
2022/02/12 12:02:37;;;;;;;6.45;2.33;;;4.10;99.90;;;;;;5102192;28;20601;-53
2022/02/12 12:05:23;;;;;;;5.95;2.75;;;4.20;99.90;;;;;;5103134;28;20243;-47
2022/02/12 12:08:12;;;;;;;8.05;2.30;;;4.20;99.90;;;;;;5102706;28;20243;-53
2022/02/12 12:10:50;;;;;;;12.15;2.70;;;4.20;99.90;;;;;;5103493;28;20506;-52
2022/02/12 12:13:17;;;;;;;4.60;1.80;;;4.10;99.90;;;;;;5102643;28;20199;-51
2022/02/12 12:16:16;;;;;;;2.13;1.52;;;4.20;99.90;;;;;;5102600;28;20224;-51
2022/02/12 12:18:47;;;;;;;2.58;1.17;;;4.10;99.90;;;;;;5102359;28;20219;-50
2022/02/12 12:21:18;;;;;;;7.45;1.67;;;4.20;99.90;;;;;;5102525;28;20200;-52
2022/02/12 12:23:56;;;;;;;1.23;1.13;;;4.00;99.90;;;;;;5102094;28;20286;-50
2022/02/12 12:26:45;;;;;;;1.95;1.30;;;4.00;99.90;;;;;;5102768;28;20272;-54
2022/02/12 12:32:02;;;;;;;3.75;1.42;;;4.20;99.90;;;;;;5102192;28;20279;-50
2022/02/12 12:34:30;;;;;;;3.92;1.85;;;4.20;99.90;;;;;;5102614;28;20468;-46
2022/02/12 12:37:01;;;;;;;5.50;2.28;;;4.10;99.90;;;;;;5101814;28;20261;-55
2022/02/12 12:39:34;;;;;;;4.03;2.33;;;4.10;99.90;;;;;;5102715;28;20519;-49
2022/02/12 12:42:04;;;;;;;2.78;1.88;;;4.10;99.90;;;;;;5101948;28;20278;-47
2022/02/12 12:44:31;;;;;;;2.80;1.70;;;4.30;99.90;;;;;;5103107;28;20224;-47
2022/02/12 12:47:00;;;;;;;3.30;1.75;;;4.20;99.90;;;;;;5102248;28;20484;-47
2022/02/12 12:49:39;;;;;;;2.30;1.90;;;4.10;99.90;;;;;;5102626;28;20217;-51
2022/02/12 12:52:12;;;;;;;4.25;1.90;;;4.20;99.90;;;;;;5111206;28;20540;-50
2022/02/12 12:54:41;;;;;;;2.80;2.28;;;4.20;99.90;;;;;;5101866;28;20251;-52
2022/02/12 12:57:11;;;;;;;1.15;1.10;;;4.10;99.90;;;;;;5101803;28;20204;-47
2022/02/12 12:59:52;;;;;;;3.90;2.05;;;4.10;99.90;;;;;;5110066;28;20575;-48
2022/02/12 13:02:21;;;;;;;4.15;2.15;;;4.30;99.90;;;;;;5103628;28;20232;-49
2022/02/12 13:04:56;;;;;;;9.88;2.22;;;4.30;99.90;;;;;;5101688;28;20239;-45
2022/02/12 13:07:30;;;;;;;4.22;1.92;;;4.20;99.90;;;;;;5103848;28;20219;-45